Time;durP1;ratioP1;P1;durP2;ratioP2;P2;SDS_P1;SDS_P2;PMS_P1;PMS_P2;Temp;Humidity;BMP_temperature;BMP_pressure;BME280_temperature;BME280_humidity;BME280_pressure;Samples;Min_cycle;Max_cycle;Signal;HPM_P1;HPM_P2
2023/12/03 00:01:13;;;;;;;19.63;2.25;;;;;;;;;;10461965;28;20028;-73
2023/12/03 00:06:13;;;;;;;22.00;3.05;;;;;;;;;;10461358;28;20036;-74
2023/12/03 00:11:13;;;;;;;12.77;1.80;;;;;;;;;;10460210;28;20318;-74
2023/12/03 00:16:13;;;;;;;13.60;2.25;;;;;;;;;;10460997;28;20573;-73
2023/12/03 00:21:14;;;;;;;11.43;1.90;;;;;;;;;;10460753;28;20033;-74
2023/12/03 00:26:14;;;;;;;22.83;3.35;;;;;;;;;;10442216;28;20029;-73
2023/12/03 00:31:14;;;;;;;15.10;3.17;;;;;;;;;;10460631;28;20088;-73
2023/12/03 00:36:14;;;;;;;10.20;2.10;;;;;;;;;;10460335;28;20025;-72
2023/12/03 00:41:15;;;;;;;23.20;2.88;;;;;;;;;;10442222;28;20063;-73
2023/12/03 00:46:18;;;;;;;12.02;1.88;;;;;;;;;;10459801;28;20049;-73
2023/12/03 00:51:19;;;;;;;16.55;3.92;;;;;;;;;;10459562;28;20032;-73
2023/12/03 00:56:19;;;;;;;12.15;2.13;;;;;;;;;;10459176;28;20362;-74
2023/12/03 01:01:19;;;;;;;16.98;2.20;;;;;;;;;;10458952;28;20434;-74
2023/12/03 01:06:20;;;;;;;18.17;1.95;;;;;;;;;;10459077;28;20144;-74
2023/12/03 01:11:20;;;;;;;19.40;1.88;;;;;;;;;;10458903;28;20088;-74
2023/12/03 01:16:21;;;;;;;16.80;2.47;;;;;;;;;;10458585;28;20013;-73
2023/12/03 01:21:21;;;;;;;19.52;2.50;;;;;;;;;;10458302;28;20310;-73
2023/12/03 01:26:21;;;;;;;23.77;2.60;;;;;;;;;;10456882;28;20215;-73
2023/12/03 01:31:21;;;;;;;13.25;2.30;;;;;;;;;;10457572;28;20040;-73
2023/12/03 01:36:21;;;;;;;13.55;2.05;;;;;;;;;;10457967;28;20032;-72
2023/12/03 01:41:22;;;;;;;24.45;3.15;;;;;;;;;;10457380;28;20027;-72
2023/12/03 01:46:22;;;;;;;17.67;2.92;;;;;;;;;;10457777;28;20024;-73
2023/12/03 01:51:22;;;;;;;10.85;1.95;;;;;;;;;;10457229;28;20303;-74
2023/12/03 01:56:23;;;;;;;18.60;2.27;;;;;;;;;;10456871;28;20216;-75
2023/12/03 02:01:23;;;;;;;15.27;2.47;;;;;;;;;;10457392;28;20122;-73
2023/12/03 02:06:24;;;;;;;14.10;2.47;;;;;;;;;;10456690;28;20009;-73
2023/12/03 02:11:24;;;;;;;18.25;2.63;;;;;;;;;;10456749;28;20378;-73
2023/12/03 02:16:24;;;;;;;18.30;2.70;;;;;;;;;;10456884;28;20025;-73
2023/12/03 02:21:25;;;;;;;17.33;3.00;;;;;;;;;;10438385;28;20036;-73
2023/12/03 02:26:25;;;;;;;18.63;2.60;;;;;;;;;;10456265;28;20020;-74
2023/12/03 02:31:27;;;;;;;20.90;2.28;;;;;;;;;;10456220;28;20107;-75
2023/12/03 02:36:27;;;;;;;15.77;2.97;;;;;;;;;;10456061;28;20021;-73
2023/12/03 02:41:27;;;;;;;17.55;2.03;;;;;;;;;;10456223;28;20382;-73
2023/12/03 02:46:27;;;;;;;15.27;1.80;;;;;;;;;;10454923;28;20250;-73
2023/12/03 02:51:28;;;;;;;14.57;2.33;;;;;;;;;;10457358;28;20253;-72
2023/12/03 02:56:28;;;;;;;17.77;3.22;;;;;;;;;;10463961;28;20061;-73
2023/12/03 03:01:28;;;;;;;42.00;15.48;;;;;;;;;;10463857;28;20017;-74
2023/12/03 03:06:28;;;;;;;24.45;2.70;;;;;;;;;;10463441;28;20096;-74
2023/12/03 03:11:29;;;;;;;19.08;2.70;;;;;;;;;;10463514;28;20020;-73
2023/12/03 03:16:29;;;;;;;20.55;2.78;;;;;;;;;;10463474;28;20080;-73
2023/12/03 03:21:29;;;;;;;18.30;2.27;;;;;;;;;;10463367;28;20084;-72
2023/12/03 03:26:30;;;;;;;20.30;2.28;;;;;;;;;;10462870;28;20290;-72
2023/12/03 03:31:30;;;;;;;21.20;2.50;;;;;;;;;;10462663;28;20382;-73
2023/12/03 03:36:30;;;;;;;15.95;2.42;;;;;;;;;;10461208;28;20238;-74
2023/12/03 03:41:30;;;;;;;17.30;2.40;;;;;;;;;;10462621;28;20475;-73
2023/12/03 03:46:31;;;;;;;14.35;2.20;;;;;;;;;;10444099;28;20291;-73
2023/12/03 03:51:31;;;;;;;21.17;2.78;;;;;;;;;;10462194;28;20215;-74
2023/12/03 03:56:31;;;;;;;27.75;4.75;;;;;;;;;;10461805;28;20121;-74
2023/12/03 04:01:31;;;;;;;23.00;3.67;;;;;;;;;;10461609;28;20025;-74
2023/12/03 04:06:36;;;;;;;17.85;3.50;;;;;;;;;;10461160;28;20052;-74
2023/12/03 04:11:43;;;;;;;21.85;3.28;;;;;;;;;;10461143;28;20055;-74
2023/12/03 04:16:43;;;;;;;28.77;2.83;;;;;;;;;;10461292;28;20044;-74
2023/12/03 04:21:44;;;;;;;25.45;4.13;;;;;;;;;;10460794;28;20028;-72
2023/12/03 04:26:44;;;;;;;21.25;2.97;;;;;;;;;;10460475;28;20024;-73
2023/12/03 04:31:44;;;;;;;18.33;3.90;;;;;;;;;;10460556;28;20370;-72
2023/12/03 04:36:44;;;;;;;27.02;3.55;;;;;;;;;;10460012;28;20318;-72
2023/12/03 04:41:45;;;;;;;23.63;3.00;;;;;;;;;;10459968;28;20311;-72
2023/12/03 04:46:45;;;;;;;19.40;2.92;;;;;;;;;;10459592;28;20368;-73
2023/12/03 04:51:45;;;;;;;12.68;3.60;;;;;;;;;;10459573;28;20226;-72
2023/12/03 04:56:45;;;;;;;20.08;2.30;;;;;;;;;;10459351;28;20036;-73
2023/12/03 05:01:45;;;;;;;14.27;2.28;;;;;;;;;;10459318;28;20035;-76
2023/12/03 05:06:47;;;;;;;15.85;2.25;;;;;;;;;;10459754;28;20049;-73
2023/12/03 05:11:48;;;;;;;12.05;3.08;;;;;;;;;;10458769;28;20040;-72
2023/12/03 05:16:48;;;;;;;21.38;2.50;;;;;;;;;;10456472;28;20200;-73
2023/12/03 05:21:49;;;;;;;17.27;2.78;;;;;;;;;;10457094;28;20032;-73
2023/12/03 05:26:50;;;;;;;23.15;3.97;;;;;;;;;;10458074;28;20039;-73
2023/12/03 05:31:50;;;;;;;9.65;1.77;;;;;;;;;;10457534;28;20103;-73
2023/12/03 05:36:51;;;;;;;10.63;2.45;;;;;;;;;;10457514;28;20021;-74
2023/12/03 05:41:51;;;;;;;13.15;2.30;;;;;;;;;;10457331;28;20210;-73
2023/12/03 05:46:51;;;;;;;14.90;2.38;;;;;;;;;;10457982;28;20017;-73
2023/12/03 05:51:51;;;;;;;17.27;2.42;;;;;;;;;;10441732;28;20088;-73
2023/12/03 05:56:52;;;;;;;8.93;2.17;;;;;;;;;;10457535;28;20058;-73
2023/12/03 06:01:52;;;;;;;14.90;2.55;;;;;;;;;;10456534;28;20359;-73
2023/12/03 06:06:52;;;;;;;8.23;2.53;;;;;;;;;;10463905;28;20078;-73
2023/12/03 06:11:52;;;;;;;17.80;3.72;;;;;;;;;;10456361;28;20283;-72
2023/12/03 06:16:53;;;;;;;15.00;3.00;;;;;;;;;;10456734;28;20093;-72
2023/12/03 06:21:53;;;;;;;19.38;3.05;;;;;;;;;;10442585;28;20013;-72
2023/12/03 06:26:54;;;;;;;9.63;2.25;;;;;;;;;;10457029;28;20200;-73
2023/12/03 06:31:54;;;;;;;11.50;2.22;;;;;;;;;;10436163;28;20152;-72
2023/12/03 06:36:54;;;;;;;10.45;2.40;;;;;;;;;;10456783;28;20386;-73
2023/12/03 06:41:54;;;;;;;15.73;3.25;;;;;;;;;;10454262;28;20076;-73
2023/12/03 06:46:55;;;;;;;15.55;3.53;;;;;;;;;;10455346;28;20032;-73
2023/12/03 06:51:55;;;;;;;13.82;2.95;;;;;;;;;;10456571;28;20115;-74
2023/12/03 06:56:55;;;;;;;20.55;4.15;;;;;;;;;;10455421;28;20083;-73
2023/12/03 07:01:55;;;;;;;16.67;3.45;;;;;;;;;;10457391;28;20070;-72
2023/12/03 07:06:56;;;;;;;13.20;2.78;;;;;;;;;;10454347;28;20036;-74
2023/12/03 07:11:56;;;;;;;13.10;4.55;;;;;;;;;;10453869;28;20033;-73
2023/12/03 07:16:56;;;;;;;17.98;3.65;;;;;;;;;;10454482;28;20028;-74
2023/12/03 07:21:57;;;;;;;22.83;4.10;;;;;;;;;;10434748;28;20052;-73
2023/12/03 07:26:57;;;;;;;11.65;3.08;;;;;;;;;;10452398;28;20083;-72
2023/12/03 07:31:58;;;;;;;17.40;3.70;;;;;;;;;;10448273;28;20377;-73
2023/12/03 07:36:58;;;;;;;14.90;3.40;;;;;;;;;;10453001;28;20024;-76
2023/12/03 07:41:58;;;;;;;13.48;4.75;;;;;;;;;;10446943;28;20029;-83
2023/12/03 07:46:58;;;;;;;17.77;4.18;;;;;;;;;;10439546;28;20026;-72
2023/12/03 07:51:59;;;;;;;13.38;5.05;;;;;;;;;;10448058;28;20254;-75
2023/12/03 07:56:59;;;;;;;23.75;4.72;;;;;;;;;;10429730;28;20128;-75
2023/12/03 08:01:59;;;;;;;15.02;4.20;;;;;;;;;;10431873;28;20035;-75
2023/12/03 08:06:59;;;;;;;21.25;4.93;;;;;;;;;;10437031;28;20219;-75
2023/12/03 08:12:00;;;;;;;18.63;5.95;;;;;;;;;;10444336;28;20059;-74
2023/12/03 08:17:00;;;;;;;20.55;6.35;;;;;;;;;;10435747;28;20058;-73
2023/12/03 08:22:02;;;;;;;17.88;6.10;;;;;;;;;;10444456;28;20056;-73
2023/12/03 08:27:05;;;;;;;15.95;6.95;;;;;;;;;;10442081;28;20040;-72
2023/12/03 08:32:05;;;;;;;19.17;7.40;;;;;;;;;;10440916;28;20036;-72
2023/12/03 08:37:05;;;;;;;13.90;7.07;;;;;;;;;;10442063;28;20092;-72
2023/12/03 08:42:06;;;;;;;15.55;8.55;;;;;;;;;;10436391;28;20055;-70
2023/12/03 08:47:06;;;;;;;20.10;9.38;;;;;;;;;;10436214;28;20032;-72
2023/12/03 08:52:07;;;;;;;14.95;8.40;;;;;;;;;;10436993;28;20025;-77
2023/12/03 08:57:08;;;;;;;21.80;9.95;;;;;;;;;;10423299;28;20021;-78
2023/12/03 09:02:08;;;;;;;18.38;10.05;;;;;;;;;;10446062;28;20033;-79
2023/12/03 09:07:08;;;;;;;14.25;8.80;;;;;;;;;;10443095;28;20334;-79
2023/12/03 09:12:09;;;;;;;22.70;9.88;;;;;;;;;;10435996;28;20196;-75
2023/12/03 09:17:09;;;;;;;20.42;10.70;;;;;;;;;;10446693;28;20111;-71
2023/12/03 09:22:09;;;;;;;27.15;12.98;;;;;;;;;;10439550;28;20051;-69
2023/12/03 09:27:09;;;;;;;25.65;13.32;;;;;;;;;;10436845;28;20032;-70
2023/12/03 09:32:10;;;;;;;23.55;12.15;;;;;;;;;;10443625;28;20039;-70
2023/12/03 09:37:10;;;;;;;32.53;14.57;;;;;;;;;;10419827;28;20033;-73
2023/12/03 09:42:12;;;;;;;29.35;15.43;;;;;;;;;;10417748;28;20447;-70
2023/12/03 09:47:13;;;;;;;31.05;13.63;;;;;;;;;;10431439;28;20033;-69
2023/12/03 09:52:14;;;;;;;26.73;13.63;;;;;;;;;;10437030;28;20044;-69
2023/12/03 09:57:15;;;;;;;29.15;14.50;;;;;;;;;;10434164;28;20016;-70
2023/12/03 10:02:17;;;;;;;20.65;11.27;;;;;;;;;;10428806;28;20330;-71
2023/12/03 10:07:17;;;;;;;28.13;12.07;;;;;;;;;;10433525;28;20107;-71
2023/12/03 10:12:19;;;;;;;26.55;12.18;;;;;;;;;;10444295;28;20103;-70
2023/12/03 10:17:20;;;;;;;21.52;11.05;;;;;;;;;;10434944;28;20048;-70
2023/12/03 10:22:29;;;;;;;20.48;10.90;;;;;;;;;;10439014;28;20056;-70
2023/12/03 10:27:30;;;;;;;21.58;11.90;;;;;;;;;;10419758;28;20032;-71
2023/12/03 10:32:32;;;;;;;22.00;11.05;;;;;;;;;;10437808;28;20310;-70
2023/12/03 10:37:32;;;;;;;22.75;10.45;;;;;;;;;;10442815;28;20013;-69
2023/12/03 10:42:36;;;;;;;25.48;13.00;;;;;;;;;;10431216;28;20039;-70
2023/12/03 10:47:37;;;;;;;23.02;11.05;;;;;;;;;;10416266;28;20044;-70
2023/12/03 10:52:39;;;;;;;17.27;9.63;;;;;;;;;;10435373;28;20018;-70
2023/12/03 10:57:58;;;;;;;31.35;13.57;;;;;;;;;;10440658;28;20032;-76
2023/12/03 11:03:27;;;;;;;21.13;11.05;;;;;;;;;;10434096;28;20025;-71
2023/12/03 11:08:28;;;;;;;29.65;12.70;;;;;;;;;;10367819;28;20605;-78
2023/12/03 11:13:30;;;;;;;23.48;11.65;;;;;;;;;;10419069;28;20079;-79
2023/12/03 11:18:31;;;;;;;24.33;11.10;;;;;;;;;;10449060;28;20039;-77
2023/12/03 11:23:44;;;;;;;22.40;10.88;;;;;;;;;;10443315;28;20289;-79
2023/12/03 11:28:53;;;;;;;22.23;9.90;;;;;;;;;;10442664;28;20443;-72
2023/12/03 11:33:58;;;;;;;21.08;10.70;;;;;;;;;;10447340;28;20017;-70
2023/12/03 11:38:58;;;;;;;14.25;7.28;;;;;;;;;;10436176;28;20035;-70
2023/12/03 11:44:18;;;;;;;18.77;10.77;;;;;;;;;;10439903;28;20041;-71
2023/12/03 11:49:18;;;;;;;21.52;11.13;;;;;;;;;;10437546;28;20033;-81
2023/12/03 11:54:24;;;;;;;22.80;10.60;;;;;;;;;;10427910;28;20021;-78
2023/12/03 11:59:24;;;;;;;21.27;10.90;;;;;;;;;;10429367;28;20593;-77
2023/12/03 12:04:24;;;;;;;19.70;9.17;;;;;;;;;;10433094;28;20044;-71
2023/12/03 12:09:24;;;;;;;23.07;11.17;;;;;;;;;;10423794;28;20024;-71
2023/12/03 12:14:25;;;;;;;16.25;9.68;;;;;;;;;;10427435;28;20083;-71
2023/12/03 12:19:25;;;;;;;22.77;10.00;;;;;;;;;;10442407;28;20366;-71
2023/12/03 12:24:25;;;;;;;22.77;10.15;;;;;;;;;;10438002;28;20243;-72
2023/12/03 12:29:25;;;;;;;18.30;9.57;;;;;;;;;;10431700;28;20056;-71
2023/12/03 12:34:27;;;;;;;23.83;11.73;;;;;;;;;;10429117;28;20017;-71
2023/12/03 12:39:28;;;;;;;14.90;8.82;;;;;;;;;;10441222;28;20059;-71
2023/12/03 12:44:42;;;;;;;24.08;10.57;;;;;;;;;;10405282;28;20108;-71
2023/12/03 12:49:57;;;;;;;19.27;10.18;;;;;;;;;;10446515;28;20134;-71
2023/12/03 12:54:58;;;;;;;18.00;9.75;;;;;;;;;;10430483;28;20858;-73
2023/12/03 12:59:59;;;;;;;24.70;11.93;;;;;;;;;;10436168;28;20092;-71
2023/12/03 13:04:59;;;;;;;22.17;9.90;;;;;;;;;;10428381;28;20224;-71
2023/12/03 13:09:59;;;;;;;23.43;11.27;;;;;;;;;;10435353;28;20092;-72
2023/12/03 13:15:00;;;;;;;24.05;13.52;;;;;;;;;;10426859;28;20311;-71
2023/12/03 13:20:01;;;;;;;27.27;13.88;;;;;;;;;;10435220;28;20370;-71
2023/12/03 13:25:01;;;;;;;31.77;15.02;;;;;;;;;;10431917;28;20028;-73
2023/12/03 13:30:01;;;;;;;24.75;14.30;;;;;;;;;;10430211;28;20260;-72
2023/12/03 13:35:01;;;;;;;27.30;13.23;;;;;;;;;;10426268;28;20096;-71
2023/12/03 13:40:03;;;;;;;29.92;13.55;;;;;;;;;;10439767;28;20036;-71
2023/12/03 13:45:04;;;;;;;29.02;13.63;;;;;;;;;;10441537;28;20052;-72
2023/12/03 13:50:05;;;;;;;33.13;16.73;;;;;;;;;;10438432;28;20360;-71
2023/12/03 13:55:05;;;;;;;35.35;17.23;;;;;;;;;;10444303;28;20028;-75
2023/12/03 14:00:06;;;;;;;39.33;17.48;;;;;;;;;;10424351;28;20052;-78
2023/12/03 14:05:08;;;;;;;40.33;14.68;;;;;;;;;;10438815;28;20042;-69
2023/12/03 14:10:11;;;;;;;33.88;15.65;;;;;;;;;;10422430;28;20116;-72
2023/12/03 14:15:12;;;;;;;32.90;15.55;;;;;;;;;;10437540;28;20029;-71
2023/12/03 14:20:12;;;;;;;28.95;14.48;;;;;;;;;;10417470;28;20033;-72
2023/12/03 14:25:12;;;;;;;24.20;13.40;;;;;;;;;;10429721;28;20029;-71
2023/12/03 14:30:13;;;;;;;26.08;14.15;;;;;;;;;;10435996;28;20044;-73
2023/12/03 14:35:13;;;;;;;30.88;14.57;;;;;;;;;;10433639;28;20021;-71
2023/12/03 14:40:15;;;;;;;27.65;14.43;;;;;;;;;;10436973;28;20026;-72
2023/12/03 14:45:16;;;;;;;26.70;13.77;;;;;;;;;;10429823;28;20196;-78
2023/12/03 14:50:17;;;;;;;27.92;14.90;;;;;;;;;;10443940;28;20021;-76
2023/12/03 14:55:18;;;;;;;34.20;14.63;;;;;;;;;;10447489;28;20436;-79
2023/12/03 15:00:18;;;;;;;24.80;13.13;;;;;;;;;;10447820;28;20020;-78
2023/12/03 15:05:19;;;;;;;26.02;13.93;;;;;;;;;;10438666;28;20021;-70
2023/12/03 15:10:19;;;;;;;26.90;11.10;;;;;;;;;;10446878;28;20103;-73
2023/12/03 15:15:20;;;;;;;19.52;10.63;;;;;;;;;;10431312;28;20127;-80
2023/12/03 15:20:21;;;;;;;21.27;11.23;;;;;;;;;;10451439;28;20017;-82
2023/12/03 15:25:21;;;;;;;19.23;11.77;;;;;;;;;;10448480;28;20302;-77
2023/12/03 15:30:21;;;;;;;19.48;10.90;;;;;;;;;;10416712;28;20049;-76
2023/12/03 15:35:22;;;;;;;18.63;9.70;;;;;;;;;;10407629;28;20307;-76
2023/12/03 15:40:22;;;;;;;17.17;9.65;;;;;;;;;;10423463;28;20247;-76
2023/12/03 15:45:25;;;;;;;25.02;10.90;;;;;;;;;;10410797;28;20108;-79
2023/12/03 15:50:25;;;;;;;20.23;10.13;;;;;;;;;;10403502;28;20173;-85
2023/12/03 15:55:26;;;;;;;18.85;9.82;;;;;;;;;;10426927;28;20037;-81
2023/12/03 16:00:27;;;;;;;19.42;9.88;;;;;;;;;;10403302;28;20024;-77
2023/12/03 16:05:27;;;;;;;14.48;9.23;;;;;;;;;;10402087;28;20017;-78
2023/12/03 16:10:27;;;;;;;15.98;8.52;;;;;;;;;;10398044;28;20021;-77
2023/12/03 16:15:28;;;;;;;14.15;8.88;;;;;;;;;;10408790;28;20021;-76
2023/12/03 16:20:28;;;;;;;19.08;9.60;;;;;;;;;;10409872;28;20018;-79
2023/12/03 16:25:28;;;;;;;15.95;8.60;;;;;;;;;;10400341;28;20022;-79
2023/12/03 16:30:29;;;;;;;13.03;7.53;;;;;;;;;;10424894;28;20041;-81
2023/12/03 16:35:29;;;;;;;12.88;7.55;;;;;;;;;;10444795;28;20019;-81
2023/12/03 16:40:31;;;;;;;10.70;5.90;;;;;;;;;;10443327;28;21579;-79
2023/12/03 16:45:32;;;;;;;12.05;6.75;;;;;;;;;;10444967;28;20043;-82
2023/12/03 16:50:32;;;;;;;12.38;5.60;;;;;;;;;;10433890;28;20020;-78
2023/12/03 16:55:32;;;;;;;10.80;5.60;;;;;;;;;;10444151;28;20052;-79
2023/12/03 17:00:32;;;;;;;10.57;6.18;;;;;;;;;;10436249;28;20067;-80
2023/12/03 17:05:33;;;;;;;10.77;5.38;;;;;;;;;;10444404;28;20017;-75
2023/12/03 17:10:34;;;;;;;7.95;4.85;;;;;;;;;;10432584;28;20041;-77
2023/12/03 17:15:34;;;;;;;11.55;5.95;;;;;;;;;;10422295;28;20025;-78
2023/12/03 17:20:36;;;;;;;10.80;6.32;;;;;;;;;;10443985;28;20025;-78
2023/12/03 17:25:36;;;;;;;12.52;6.22;;;;;;;;;;10430663;28;20025;-75
2023/12/03 17:30:37;;;;;;;10.27;6.22;;;;;;;;;;10421349;28;20051;-76
2023/12/03 17:35:37;;;;;;;11.13;5.93;;;;;;;;;;10441526;28;21304;-77
2023/12/03 17:40:38;;;;;;;12.23;6.20;;;;;;;;;;10423312;28;20092;-77
2023/12/03 17:45:38;;;;;;;13.95;7.05;;;;;;;;;;10424710;28;20036;-79
2023/12/03 17:50:39;;;;;;;12.50;6.78;;;;;;;;;;10428198;28;20021;-79
2023/12/03 17:55:39;;;;;;;11.48;7.45;;;;;;;;;;10433766;28;20264;-79
2023/12/03 18:00:43;;;;;;;12.93;7.72;;;;;;;;;;10434847;28;20420;-78
2023/12/03 18:05:44;;;;;;;20.88;9.10;;;;;;;;;;10418254;28;20031;-85
2023/12/03 18:10:45;;;;;;;11.90;6.95;;;;;;;;;;10427452;28;20211;-82
2023/12/03 18:15:45;;;;;;;14.20;8.25;;;;;;;;;;10437272;28;20033;-80
2023/12/03 18:20:45;;;;;;;14.77;9.05;;;;;;;;;;10440448;28;20023;-79
2023/12/03 18:25:46;;;;;;;16.98;9.07;;;;;;;;;;10437999;28;20032;-78
2023/12/03 18:30:47;;;;;;;15.87;8.33;;;;;;;;;;10438069;28;20025;-75
2023/12/03 18:35:47;;;;;;;16.77;8.82;;;;;;;;;;10424907;28;20093;-77
2023/12/03 18:40:52;;;;;;;16.60;9.20;;;;;;;;;;10419708;28;20024;-74
2023/12/03 18:45:53;;;;;;;15.77;8.35;;;;;;;;;;10433899;28;20029;-73
2023/12/03 18:50:53;;;;;;;16.08;9.35;;;;;;;;;;10439260;28;20573;-75
2023/12/03 18:55:53;;;;;;;18.52;10.13;;;;;;;;;;10430962;28;20013;-75
2023/12/03 19:00:54;;;;;;;16.80;9.50;;;;;;;;;;10437369;28;20127;-76
2023/12/03 19:05:55;;;;;;;15.20;8.50;;;;;;;;;;10425912;28;20986;-75
2023/12/03 19:10:56;;;;;;;16.63;9.65;;;;;;;;;;10439330;28;20021;-76
2023/12/03 19:15:56;;;;;;;13.93;8.57;;;;;;;;;;10439500;28;20033;-76
2023/12/03 19:20:56;;;;;;;20.63;8.50;;;;;;;;;;10435829;28;20148;-75
2023/12/03 19:25:56;;;;;;;14.98;7.72;;;;;;;;;;10419101;28;20032;-75
2023/12/03 19:30:57;;;;;;;15.45;8.63;;;;;;;;;;10436136;28;20075;-75
2023/12/03 19:35:58;;;;;;;14.30;8.75;;;;;;;;;;10442521;28;20025;-75
2023/12/03 19:41:01;;;;;;;18.13;9.40;;;;;;;;;;10433556;28;20031;-77
2023/12/03 19:46:01;;;;;;;18.55;8.80;;;;;;;;;;10440474;28;20052;-74
2023/12/03 19:51:02;;;;;;;16.55;8.32;;;;;;;;;;10440509;28;20222;-75
2023/12/03 19:56:02;;;;;;;13.27;9.00;;;;;;;;;;10438705;28;20087;-83
2023/12/03 20:01:06;;;;;;;12.77;6.80;;;;;;;;;;10447792;28;20013;-80
2023/12/03 20:06:06;;;;;;;14.60;8.82;;;;;;;;;;10448165;28;20357;-80
2023/12/03 20:11:09;;;;;;;11.77;7.18;;;;;;;;;;10447274;28;20079;-81
2023/12/03 20:16:10;;;;;;;16.88;8.55;;;;;;;;;;10459997;28;20028;-80
2023/12/03 20:21:10;;;;;;;12.03;7.67;;;;;;;;;;10432858;28;20053;-76
2023/12/03 20:26:10;;;;;;;11.68;7.32;;;;;;;;;;10434933;28;20366;-77
2023/12/03 20:31:11;;;;;;;13.50;7.22;;;;;;;;;;10444151;28;20319;-77
2023/12/03 20:36:12;;;;;;;14.10;7.15;;;;;;;;;;10436590;28;20037;-74
2023/12/03 20:41:20;;;;;;;16.67;8.07;;;;;;;;;;10435778;28;20024;-74
2023/12/03 20:46:21;;;;;;;9.38;6.30;;;;;;;;;;10437241;28;20031;-73
2023/12/03 20:51:22;;;;;;;12.75;7.65;;;;;;;;;;10438904;28;20420;-73
2023/12/03 20:56:22;;;;;;;10.40;6.40;;;;;;;;;;10417670;28;20214;-72
2023/12/03 21:01:25;;;;;;;18.40;7.03;;;;;;;;;;10443238;28;20295;-72
2023/12/03 21:06:25;;;;;;;10.68;6.32;;;;;;;;;;10446142;28;20100;-73
2023/12/03 21:11:25;;;;;;;10.27;5.57;;;;;;;;;;10436192;28;20009;-74
2023/12/03 21:16:26;;;;;;;10.35;6.45;;;;;;;;;;10435862;28;20519;-73
2023/12/03 21:21:26;;;;;;;15.00;7.82;;;;;;;;;;10438212;28;20079;-74
2023/12/03 21:26:26;;;;;;;11.13;7.20;;;;;;;;;;10436847;28;20330;-74
2023/12/03 21:31:27;;;;;;;10.00;5.47;;;;;;;;;;10413125;28;20052;-74
2023/12/03 21:36:29;;;;;;;11.90;6.70;;;;;;;;;;10433643;28;20025;-73
2023/12/03 21:41:29;;;;;;;16.90;7.32;;;;;;;;;;10436526;28;20021;-74
2023/12/03 21:46:30;;;;;;;13.40;8.15;;;;;;;;;;10420300;28;20107;-74
2023/12/03 21:51:32;;;;;;;13.00;7.53;;;;;;;;;;10428716;28;20353;-74
2023/12/03 21:56:32;;;;;;;12.15;7.25;;;;;;;;;;10432389;28;20235;-77
2023/12/03 22:01:32;;;;;;;18.52;8.13;;;;;;;;;;10441857;28;20097;-75
2023/12/03 22:06:33;;;;;;;10.32;6.45;;;;;;;;;;10437594;28;20054;-74
2023/12/03 22:11:34;;;;;;;14.65;7.88;;;;;;;;;;10431265;28;20017;-74
2023/12/03 22:16:34;;;;;;;11.60;6.57;;;;;;;;;;10434087;28;20092;-75
2023/12/03 22:21:34;;;;;;;14.45;7.82;;;;;;;;;;10434947;28;20055;-74
2023/12/03 22:26:34;;;;;;;16.02;8.00;;;;;;;;;;10437668;28;20078;-75
2023/12/03 22:31:35;;;;;;;15.30;7.47;;;;;;;;;;10432903;28;20063;-75
2023/12/03 22:36:35;;;;;;;12.32;7.32;;;;;;;;;;10431151;28;20124;-75
2023/12/03 22:41:35;;;;;;;12.80;7.45;;;;;;;;;;10424060;28;20227;-75
2023/12/03 22:46:35;;;;;;;12.38;8.43;;;;;;;;;;10423273;28;20276;-75
2023/12/03 22:51:36;;;;;;;13.98;7.50;;;;;;;;;;10438822;28;20032;-76
2023/12/03 22:56:37;;;;;;;15.80;8.73;;;;;;;;;;10409951;28;20398;-74
2023/12/03 23:01:42;;;;;;;14.45;8.65;;;;;;;;;;10438618;28;20021;-73
2023/12/03 23:06:42;;;;;;;15.88;8.00;;;;;;;;;;10443392;28;20510;-75
2023/12/03 23:11:42;;;;;;;18.73;8.70;;;;;;;;;;10436093;28;20060;-74
2023/12/03 23:16:43;;;;;;;15.48;7.70;;;;;;;;;;10417587;28;20035;-75
2023/12/03 23:21:45;;;;;;;15.55;8.43;;;;;;;;;;10436241;28;20029;-74
2023/12/03 23:26:45;;;;;;;17.85;9.77;;;;;;;;;;10428118;28;20071;-74
2023/12/03 23:31:45;;;;;;;20.17;8.18;;;;;;;;;;10445021;28;20029;-74
2023/12/03 23:36:45;;;;;;;15.95;9.10;;;;;;;;;;10436557;28;20434;-74
2023/12/03 23:41:46;;;;;;;16.98;9.45;;;;;;;;;;10437526;28;20013;-73
2023/12/03 23:46:46;;;;;;;12.13;7.20;;;;;;;;;;10431097;28;20088;-74
2023/12/03 23:51:46;;;;;;;11.45;6.55;;;;;;;;;;10414465;28;20009;-75
2023/12/03 23:56:46;;;;;;;13.48;7.45;;;;;;;;;;10433988;28;20025;-73
